Time;durP1;ratioP1;P1;durP2;ratioP2;P2;SDS_P1;SDS_P2;PMS_P1;PMS_P2;Temp;Humidity;BMP_temperature;BMP_pressure;BME280_temperature;BME280_humidity;BME280_pressure;Samples;Min_cycle;Max_cycle;Signal;HPM_P1;HPM_P2
2022/06/07 00:00:34;;;;;;;18.88;16.77;;;;;;;19.43;71.27;100073.44;4932801;28;101405;-77
2022/06/07 00:02:59;;;;;;;17.92;16.42;;;;;;;19.28;71.39;100053.25;4941291;28;97479;-76
2022/06/07 00:05:25;;;;;;;17.83;16.40;;;;;;;19.46;71.20;100091.00;4940389;28;97204;-76
2022/06/07 00:07:53;;;;;;;18.13;16.50;;;;;;;19.37;71.15;100063.25;4944712;28;97333;-76
2022/06/07 00:10:19;;;;;;;18.00;16.50;;;;;;;19.35;70.97;100056.34;4934645;28;101658;-76
2022/06/07 00:12:44;;;;;;;20.45;16.45;;;;;;;19.49;70.86;100073.91;4946074;28;101520;-75
2022/06/07 00:15:10;;;;;;;18.08;16.35;;;;;;;19.49;71.23;100074.78;4945107;28;96829;-80
2022/06/07 00:17:36;;;;;;;17.25;15.88;;;;;;;19.34;71.30;100067.94;4947833;28;96808;-75
2022/06/07 00:20:03;;;;;;;18.77;16.92;;;;;;;19.37;71.28;100065.91;4943509;28;101464;-75
2022/06/07 00:22:28;;;;;;;16.98;15.65;;;;;;;19.46;71.06;100077.69;4934629;28;97962;-76
2022/06/07 00:24:54;;;;;;;17.67;16.10;;;;;;;19.40;70.74;100055.03;4932563;28;96729;-76
2022/06/07 00:27:19;;;;;;;17.58;16.05;;;;;;;19.38;70.66;100062.28;4940922;28;96735;-76
2022/06/07 00:29:46;;;;;;;18.10;16.75;;;;;;;19.49;70.66;100069.47;4933008;28;98209;-76
2022/06/07 00:32:13;;;;;;;17.23;15.80;;;;;;;19.50;70.62;100067.66;4943029;28;101849;-82
2022/06/07 00:34:38;;;;;;;17.40;16.08;;;;;;;19.50;70.75;100073.81;4952683;28;96711;-76
2022/06/07 00:37:04;;;;;;;16.45;15.15;;;;;;;19.54;70.43;100074.41;4946984;28;97027;-75
2022/06/07 00:39:29;;;;;;;15.82;14.48;;;;;;;19.57;70.43;100064.38;4948824;28;101594;-75
2022/06/07 00:41:55;;;;;;;16.17;14.93;;;;;;;19.53;70.27;100070.06;4935426;28;101088;-75
2022/06/07 00:44:20;;;;;;;15.82;14.73;;;;;;;19.57;70.07;100066.19;4927459;28;97381;-75
2022/06/07 00:46:53;;;;;;;16.30;14.95;;;;;;;19.62;69.77;100064.03;4967714;28;97032;-75
2022/06/07 00:49:20;;;;;;;15.60;14.50;;;;;;;19.57;70.08;100051.06;4928417;28;101632;-75
2022/06/07 00:51:46;;;;;;;15.82;14.48;;;;;;;19.52;70.19;100060.38;4942625;28;101629;-76
2022/06/07 00:54:27;;;;;;;17.38;15.95;;;;;;;19.44;70.12;100037.00;4946603;28;96723;-80
2022/06/07 00:56:59;;;;;;;15.45;14.05;;;;;;;19.58;69.91;100052.78;4948966;28;96935;-76
2022/06/07 00:59:30;;;;;;;15.48;14.27;;;;;;;19.64;69.75;100047.00;4925538;28;101497;-76
2022/06/07 01:01:56;;;;;;;16.05;14.75;;;;;;;19.62;69.87;100056.06;4926135;28;101743;-75
2022/06/07 01:04:23;;;;;;;15.85;14.65;;;;;;;19.55;69.95;100047.69;4919950;28;98158;-76
2022/06/07 01:12:23;;;;;;;15.90;14.70;;;;;;;19.58;69.79;100052.78;4932277;28;101283;-76
2022/06/07 01:14:49;;;;;;;15.90;14.30;;;;;;;19.59;69.60;100054.47;4940857;28;97916;-76
2022/06/07 01:17:15;;;;;;;16.65;15.13;;;;;;;19.47;69.73;100031.47;4950886;28;97442;-80
2022/06/07 01:19:40;;;;;;;16.42;14.82;;;;;;;19.60;69.54;100048.19;4926713;28;101070;-77
2022/06/07 01:22:06;;;;;;;15.60;14.50;;;;;;;19.46;69.68;100040.41;4929039;28;101280;-77
2022/06/07 01:24:33;;;;;;;15.45;14.35;;;;;;;19.37;70.17;100054.38;4942316;28;97072;-77
2022/06/07 01:27:03;;;;;;;15.38;14.30;;;;;;;19.30;70.19;100032.72;4950159;28;96795;-77
2022/06/07 01:29:29;;;;;;;16.48;15.27;;;;;;;19.34;70.22;100036.84;4933154;28;101341;-77
2022/06/07 01:31:55;;;;;;;15.00;14.10;;;;;;;19.34;70.12;100041.31;4930830;28;101178;-77
2022/06/07 01:34:24;;;;;;;16.25;14.95;;;;;;;19.33;70.23;100059.09;4935817;28;97116;-77
2022/06/07 01:36:50;;;;;;;16.85;15.27;;;;;;;19.30;69.81;100029.22;4948009;28;97189;-77
2022/06/07 01:41:59;;;;;;;16.23;15.13;;;;;;;19.26;69.95;100047.22;4943235;28;101211;-77
2022/06/07 01:44:37;;;;;;;16.08;14.98;;;;;;;19.23;69.93;100042.97;4920951;28;97069;-77
2022/06/07 01:47:05;;;;;;;15.98;14.80;;;;;;;19.14;70.02;100025.03;4931707;28;96861;-80
2022/06/07 01:49:34;;;;;;;16.00;14.38;;;;;;;19.10;70.33;100036.84;4928954;28;101594;-77
2022/06/07 01:52:00;;;;;;;15.25;14.05;;;;;;;19.14;70.24;100041.00;4955567;28;98083;-77
2022/06/07 01:54:28;;;;;;;15.85;14.65;;;;;;;19.09;70.19;100037.84;4922034;28;97361;-77
2022/06/07 01:56:54;;;;;;;15.30;14.30;;;;;;;19.08;70.04;100037.94;4944814;28;97316;-77
2022/06/07 01:59:19;;;;;;;16.00;14.75;;;;;;;19.04;69.79;100023.16;4942709;28;101233;-77
2022/06/07 02:01:46;;;;;;;15.98;14.85;;;;;;;19.11;69.91;100040.38;4918982;28;101717;-77
2022/06/07 02:04:12;;;;;;;16.08;15.07;;;;;;;19.12;69.94;100048.25;4943000;28;97272;-77
2022/06/07 02:06:39;;;;;;;15.85;14.75;;;;;;;19.12;69.92;100039.41;4947533;28;97029;-77
2022/06/07 02:09:07;;;;;;;15.48;14.43;;;;;;;18.97;70.22;100034.28;4945557;28;100779;-77
2022/06/07 02:11:34;;;;;;;16.67;15.20;;;;;;;18.91;70.48;100037.38;4930937;28;101605;-78
2022/06/07 02:14:05;;;;;;;16.50;15.30;;;;;;;18.82;70.36;100018.56;4930046;28;97673;-77
2022/06/07 02:16:32;;;;;;;16.48;15.30;;;;;;;18.71;70.45;100014.88;4963989;28;97066;-77
2022/06/07 02:18:57;;;;;;;16.80;15.50;;;;;;;18.76;70.76;100030.50;4942447;28;100825;-77
2022/06/07 02:21:49;;;;;;;15.82;14.63;;;;;;;18.81;70.64;100033.69;4949433;28;99399;-77
2022/06/07 02:24:15;;;;;;;17.33;15.68;;;;;;;18.79;70.55;100032.94;4938295;28;96711;-77
2022/06/07 02:26:45;;;;;;;16.45;15.32;;;;;;;18.76;70.59;100020.75;4930546;28;96859;-77
2022/06/07 02:29:25;;;;;;;15.52;14.43;;;;;;;18.77;70.66;100019.75;4930653;28;101138;-77
2022/06/07 02:31:57;;;;;;;15.35;14.00;;;;;;;18.77;70.50;100024.25;4913347;28;100937;-77
2022/06/07 02:34:23;;;;;;;15.98;14.57;;;;;;;18.64;70.89;100026.88;4939858;28;96820;-77
2022/06/07 02:36:52;;;;;;;15.63;14.25;;;;;;;18.59;71.03;100023.75;4947462;28;96962;-77
2022/06/07 02:39:18;;;;;;;15.52;14.50;;;;;;;18.58;71.07;100023.84;4935627;28;101384;-81
2022/06/07 02:41:45;;;;;;;15.43;14.43;;;;;;;18.59;71.05;100030.84;4918189;28;101663;-77
2022/06/07 02:44:11;;;;;;;15.45;14.38;;;;;;;18.54;71.09;99999.28;4930243;28;96745;-77
2022/06/07 02:46:37;;;;;;;17.95;16.45;;;;;;;18.53;71.03;100010.91;4937866;28;97431;-77
2022/06/07 02:49:04;;;;;;;16.98;15.57;;;;;;;18.57;71.27;100011.50;4949219;28;98084;-77
2022/06/07 02:51:30;;;;;;;17.73;16.50;;;;;;;18.44;71.12;100008.88;4949820;28;100731;-77
2022/06/07 02:53:56;;;;;;;17.13;15.82;;;;;;;18.49;70.99;100012.91;4945807;28;97084;-77
2022/06/07 02:56:23;;;;;;;16.45;15.25;;;;;;;18.47;71.10;100012.19;4943913;28;96873;-77
2022/06/07 02:58:49;;;;;;;16.75;15.40;;;;;;;18.44;71.21;99998.25;4926710;28;101145;-77
2022/06/07 03:01:15;;;;;;;17.05;15.80;;;;;;;18.45;70.61;99989.31;4926069;28;99843;-77
2022/06/07 03:03:43;;;;;;;18.40;17.05;;;;;;;18.38;71.36;100007.50;4933854;28;97975;-77
2022/06/07 03:06:11;;;;;;;17.45;16.20;;;;;;;18.41;71.09;100006.44;4923988;28;97141;-77
2022/06/07 03:08:38;;;;;;;16.98;15.77;;;;;;;18.43;71.09;100007.19;4934493;28;101343;-77
2022/06/07 03:11:04;;;;;;;17.48;16.20;;;;;;;18.37;71.40;100008.47;4924562;28;101248;-77
2022/06/07 03:13:32;;;;;;;17.00;15.80;;;;;;;18.35;71.29;100006.88;4938225;28;99366;-78
2022/06/07 03:15:58;;;;;;;17.55;16.20;;;;;;;18.44;71.05;100017.72;4952064;28;97200;-77
2022/06/07 03:18:25;;;;;;;16.92;15.63;;;;;;;18.38;70.91;99996.88;4933240;28;101866;-77
2022/06/07 03:20:51;;;;;;;17.00;15.75;;;;;;;18.51;70.77;100018.13;4938322;28;98097;-78
2022/06/07 03:23:18;;;;;;;16.52;15.40;;;;;;;18.35;71.12;100015.69;4954415;28;97368;-75
2022/06/07 03:25:50;;;;;;;16.38;15.18;;;;;;;18.51;70.81;100018.13;4939259;28;97059;-78
2022/06/07 03:28:17;;;;;;;17.02;15.93;;;;;;;18.59;70.31;100015.75;4959105;28;101077;-80
2022/06/07 03:30:43;;;;;;;17.08;15.80;;;;;;;18.73;70.13;100022.72;4928950;28;101063;-76
2022/06/07 03:33:14;;;;;;;16.77;15.27;;;;;;;18.61;70.20;99994.38;4961507;28;97095;-76
2022/06/07 03:35:39;;;;;;;17.80;16.35;;;;;;;18.45;70.49;99984.00;4959404;28;97203;-76
2022/06/07 03:38:05;;;;;;;16.80;15.48;;;;;;;18.63;70.78;100021.69;4947704;28;101157;-76
2022/06/07 03:40:44;;;;;;;17.73;16.05;;;;;;;18.70;70.32;100014.97;4932700;28;100776;-80
2022/06/07 03:43:13;;;;;;;17.50;16.00;;;;;;;18.62;70.59;99983.63;4933941;28;97365;-76
2022/06/07 03:45:40;;;;;;;17.95;16.05;;;;;;;18.83;70.47;100007.00;4934634;28;97229;-77
2022/06/07 03:48:10;;;;;;;18.08;16.52;;;;;;;18.88;69.98;99997.72;4926498;28;101456;-76
2022/06/07 03:50:36;;;;;;;17.67;16.15;;;;;;;19.16;69.49;100017.78;4919742;28;101636;-78
2022/06/07 03:53:03;;;;;;;18.40;16.88;;;;;;;19.02;69.76;100014.44;4939477;28;96966;-77
2022/06/07 03:55:30;;;;;;;18.45;16.48;;;;;;;19.07;69.77;100013.16;4929550;28;97005;-76
2022/06/07 03:58:04;;;;;;;16.48;15.32;;;;;;;19.02;69.90;100017.94;4911727;28;102475;-76
2022/06/07 04:00:29;;;;;;;17.13;15.60;;;;;;;19.21;69.33;100025.44;4911510;28;101581;-76
2022/06/07 04:02:57;;;;;;;16.23;14.82;;;;;;;19.11;69.22;99995.13;4933692;28;96933;-76
2022/06/07 04:05:23;;;;;;;15.82;14.80;;;;;;;19.41;68.75;100008.81;4926958;28;96872;-78
2022/06/07 04:10:34;;;;;;;15.95;14.85;;;;;;;19.23;68.77;99959.66;4954864;28;101254;-77
2022/06/07 04:13:01;;;;;;;18.48;16.80;;;;;;;19.44;68.91;100005.91;4937186;28;97221;-77
2022/06/07 04:15:26;;;;;;;18.80;17.30;;;;;;;19.54;68.62;100010.53;4944536;28;97395;-80
2022/06/07 04:17:55;;;;;;;17.85;16.35;;;;;;;19.56;68.51;99987.31;4934114;28;101598;-77
2022/06/07 04:20:27;;;;;;;18.42;16.70;;;;;;;19.55;68.57;99994.47;4945123;28;100988;-82
2022/06/07 04:22:55;;;;;;;18.45;16.77;;;;;;;19.67;68.34;100009.53;4944831;28;97236;-78
2022/06/07 04:25:21;;;;;;;17.77;16.27;;;;;;;19.73;68.20;100021.50;4918114;28;97201;-77
2022/06/07 04:27:46;;;;;;;18.48;17.05;;;;;;;19.76;68.26;100009.78;4936597;28;101471;-77
2022/06/07 04:30:14;;;;;;;18.42;16.90;;;;;;;19.85;67.87;100011.72;4925018;28;101103;-77
2022/06/07 04:32:46;;;;;;;18.15;15.85;;;;;;;19.94;68.17;100002.19;4932053;28;97148;-80
2022/06/07 04:35:17;;;;;;;17.30;15.82;;;;;;;19.97;67.93;100008.09;4934514;28;96748;-77
2022/06/07 04:37:45;;;;;;;17.40;15.90;;;;;;;20.11;67.46;100007.88;4939087;28;101667;-77
2022/06/07 04:40:11;;;;;;;17.05;15.65;;;;;;;20.33;66.81;99999.03;4912790;28;101322;-77
2022/06/07 04:42:36;;;;;;;16.42;15.25;;;;;;;20.53;66.14;100007.25;4958934;28;97342;-78
2022/06/07 04:45:11;;;;;;;16.25;15.05;;;;;;;20.64;65.81;100001.06;4932150;28;97077;-79
2022/06/07 04:47:57;;;;;;;17.13;15.93;;;;;;;20.77;65.56;99999.97;4936194;28;97606;-78
2022/06/07 04:50:24;;;;;;;15.93;14.82;;;;;;;20.78;65.43;100011.47;4918019;28;101888;-78
2022/06/07 04:52:49;;;;;;;17.00;15.73;;;;;;;20.85;64.74;99987.81;4924273;28;97039;-77
2022/06/07 04:55:16;;;;;;;15.32;14.05;;;;;;;21.37;64.19;100013.69;4931019;28;98067;-78
2022/06/07 04:57:42;;;;;;;21.88;19.92;;;;;;;21.36;63.47;99996.00;4917539;28;100787;-82
2022/06/07 05:00:14;;;;;;;31.35;28.65;;;;;;;21.67;63.31;100014.75;4924703;28;101403;-83
2022/06/07 05:02:42;;;;;;;16.20;14.97;;;;;;;21.91;62.22;100011.81;4922938;28;98630;-80
2022/06/07 05:05:09;;;;;;;16.20;14.23;;;;;;;22.15;61.38;100016.84;4938949;28;97214;-82
2022/06/07 05:07:37;;;;;;;17.38;16.10;;;;;;;21.99;60.81;100009.34;4939834;28;100027;-82
2022/06/07 05:10:09;;;;;;;16.10;14.60;;;;;;;21.98;61.29;100009.47;4930727;28;100436;-83
2022/06/07 05:12:42;;;;;;;16.92;15.70;;;;;;;22.11;60.93;100016.28;4948487;28;96728;-83
2022/06/07 05:15:12;;;;;;;14.70;13.60;;;;;;;22.18;60.71;100008.59;4936293;28;97305;-83
2022/06/07 05:17:58;;;;;;;15.65;14.20;;;;;;;22.45;60.20;99999.97;4939480;28;99767;-83
2022/06/07 05:20:25;;;;;;;15.07;13.95;;;;;;;22.76;59.53;100015.97;4944129;28;101825;-85
2022/06/07 05:23:06;;;;;;;15.40;14.32;;;;;;;23.03;59.18;100009.97;4934296;28;97157;-86
2022/06/07 05:25:34;;;;;;;15.10;14.10;;;;;;;23.10;58.30;99979.00;4956132;28;96936;-86
2022/06/07 05:27:59;;;;;;;15.50;14.13;;;;;;;23.38;57.44;99992.50;4922392;28;100780;-86
2022/06/07 05:30:29;;;;;;;15.27;14.27;;;;;;;23.61;57.59;99995.72;4919847;28;101191;-87
2022/06/07 05:33:14;;;;;;;15.43;14.35;;;;;;;23.76;56.67;99996.97;4940932;28;96943;-87
2022/06/07 05:35:48;;;;;;;17.00;15.48;;;;;;;23.80;55.95;99981.47;4931130;28;97993;-86
2022/06/07 05:38:16;;;;;;;15.68;14.25;;;;;;;24.08;55.83;99993.91;4941498;28;98604;-87
2022/06/07 05:40:47;;;;;;;14.98;13.88;;;;;;;24.33;55.08;99984.34;4928028;28;100736;-88
2022/06/07 05:43:16;;;;;;;15.02;13.90;;;;;;;24.63;54.71;99993.09;4952928;28;96659;-87
2022/06/07 05:45:51;;;;;;;14.38;13.38;;;;;;;25.12;53.35;99990.06;4936917;28;97423;-89
2022/06/07 05:48:23;;;;;;;14.50;13.60;;;;;;;25.74;51.67;99972.97;4922151;28;101637;-88
2022/06/07 05:50:51;;;;;;;14.68;13.77;;;;;;;26.85;48.96;99989.13;4925278;28;99354;-90
2022/06/07 05:53:20;;;;;;;14.57;13.50;;;;;;;27.01;47.97;99964.06;4940402;28;96889;-88
2022/06/07 05:55:46;;;;;;;15.30;13.82;;;;;;;27.28;47.41;99984.47;4939405;28;96941;-88
2022/06/07 05:58:12;;;;;;;14.63;13.30;;;;;;;28.11;45.51;99979.81;4922405;28;101406;-88
2022/06/07 06:00:39;;;;;;;14.30;13.40;;;;;;;27.66;45.05;99979.38;4937049;28;101120;-86
2022/06/07 06:03:06;;;;;;;14.38;13.38;;;;;;;28.50;44.15;99993.34;4922660;28;97884;-88
2022/06/07 06:05:37;;;;;;;14.63;13.68;;;;;;;29.60;42.31;99982.28;4944809;28;96880;-88
2022/06/07 06:11:06;;;;;;;14.00;13.20;;;;;;;29.88;40.63;99963.59;4944901;28;101665;-88
2022/06/07 06:13:35;;;;;;;14.27;13.07;;;;;;;28.65;43.19;99978.09;4945011;28;97461;-85
2022/06/07 06:16:05;;;;;;;14.05;12.95;;;;;;;27.92;44.76;99981.88;4933732;28;96912;-89
2022/06/07 06:18:34;;;;;;;14.45;13.23;;;;;;;27.50;45.73;99991.03;4934604;28;101802;-84
2022/06/07 06:21:00;;;;;;;15.20;13.65;;;;;;;27.23;46.17;99992.22;4925063;28;99883;-89
2022/06/07 06:23:26;;;;;;;14.57;13.13;;;;;;;26.72;46.64;99995.97;4928003;28;97464;-87
2022/06/07 06:25:52;;;;;;;13.63;12.38;;;;;;;26.35;47.47;99992.63;4927062;28;97353;-88
2022/06/07 06:28:18;;;;;;;14.20;13.10;;;;;;;26.23;46.82;99988.53;4933650;28;97948;-85
2022/06/07 06:30:45;;;;;;;12.98;12.02;;;;;;;26.03;47.61;99992.47;4911959;28;100644;-88
2022/06/07 06:33:21;;;;;;;14.15;13.00;;;;;;;25.79;48.19;99993.16;4930693;28;96877;-89
2022/06/07 06:35:52;;;;;;;13.10;12.10;;;;;;;25.62;48.73;100000.25;4940425;28;97335;-88
2022/06/07 06:38:23;;;;;;;13.40;12.35;;;;;;;25.30;48.88;99999.00;4911615;28;100763;-89
2022/06/07 06:40:49;;;;;;;13.82;12.73;;;;;;;25.02;49.10;99988.31;4927905;28;100604;-87
2022/06/07 06:43:17;;;;;;;13.48;12.57;;;;;;;24.85;49.69;100000.72;4950938;28;97987;-87
2022/06/07 06:46:22;;;;;;;13.95;12.93;;;;;;;24.78;50.37;100001.47;4925389;28;96847;-88
2022/06/07 06:48:49;;;;;;;13.93;13.13;;;;;;;24.59;51.08;99997.94;4952671;28;101282;-85
2022/06/07 06:51:19;;;;;;;14.43;13.18;;;;;;;24.53;51.06;100006.59;4968777;28;98118;-87
2022/06/07 06:53:44;;;;;;;15.13;13.75;;;;;;;24.44;51.16;100004.81;4960279;28;96674;-89
2022/06/07 06:56:25;;;;;;;13.40;12.50;;;;;;;24.40;51.63;100017.63;4936349;28;96985;-88
2022/06/07 06:58:52;;;;;;;13.63;12.63;;;;;;;24.32;51.84;100011.31;4940489;28;100201;-90
2022/06/07 07:01:23;;;;;;;13.57;12.65;;;;;;;24.33;51.55;100007.66;4948463;28;100175;-85
2022/06/07 07:03:52;;;;;;;13.80;12.98;;;;;;;24.22;51.24;99987.22;4954904;28;97075;-87
2022/06/07 07:06:21;;;;;;;13.52;12.50;;;;;;;24.41;51.06;99999.72;4950716;28;97050;-88
2022/06/07 07:08:49;;;;;;;13.25;12.40;;;;;;;24.65;51.09;100015.28;4956416;28;101704;-83
2022/06/07 07:11:27;;;;;;;14.10;13.10;;;;;;;25.29;50.13;100010.75;4934732;28;99431;-86
2022/06/07 07:13:58;;;;;;;14.20;13.10;;;;;;;25.41;49.88;99992.53;4955875;28;97037;-88
2022/06/07 07:16:28;;;;;;;14.97;13.73;;;;;;;25.28;49.81;100011.75;4943565;28;97169;-90
2022/06/07 07:18:54;;;;;;;14.52;13.13;;;;;;;26.89;46.81;100016.56;4945108;28;101411;-83
2022/06/07 07:21:24;;;;;;;14.50;13.48;;;;;;;27.12;46.27;100014.06;4948292;28;101310;-82
2022/06/07 07:23:50;;;;;;;13.63;12.70;;;;;;;27.42;46.25;100004.50;4954349;28;97087;-81
2022/06/07 07:26:22;;;;;;;14.95;13.60;;;;;;;27.84;45.24;100005.31;4947215;28;97103;-81
2022/06/07 07:28:52;;;;;;;14.00;12.95;;;;;;;27.74;44.33;100017.13;4943957;28;101313;-81
2022/06/07 07:31:30;;;;;;;14.63;13.50;;;;;;;26.98;45.40;99990.47;4936875;28;100781;-81
2022/06/07 07:33:56;;;;;;;13.20;12.40;;;;;;;26.92;46.27;100007.31;4960086;28;97374;-80
2022/06/07 07:36:22;;;;;;;13.85;12.65;;;;;;;26.67;46.73;100003.69;4933314;28;97213;-82
2022/06/07 07:38:48;;;;;;;14.30;13.30;;;;;;;26.66;46.70;100010.94;4928945;28;101389;-83
2022/06/07 07:41:20;;;;;;;14.18;13.20;;;;;;;26.75;46.73;100019.88;4939623;28;101618;-83
2022/06/07 07:43:47;;;;;;;13.70;12.60;;;;;;;27.21;45.88;100007.72;4943691;28;97200;-84
2022/06/07 07:46:13;;;;;;;14.05;12.63;;;;;;;27.54;45.37;100007.69;4941644;28;97345;-85
2022/06/07 07:48:39;;;;;;;15.25;13.05;;;;;;;27.56;45.26;99994.06;4923709;28;100784;-83
2022/06/07 07:51:08;;;;;;;13.95;12.57;;;;;;;27.66;44.67;99973.97;4922094;28;100945;-83
2022/06/07 07:53:34;;;;;;;12.70;11.88;;;;;;;27.85;44.46;99978.19;4928908;28;97225;-83
2022/06/07 07:56:00;;;;;;;12.98;12.18;;;;;;;27.76;44.63;100004.31;4942490;28;97245;-84
2022/06/07 07:58:26;;;;;;;14.27;13.13;;;;;;;27.68;44.67;99995.41;4943648;28;100426;-84
2022/06/07 08:00:54;;;;;;;12.70;11.70;;;;;;;27.31;44.18;99999.44;4944566;28;101364;-87
2022/06/07 08:03:23;;;;;;;13.60;12.50;;;;;;;26.93;45.00;99987.44;4928213;28;96805;-87
2022/06/07 08:06:09;;;;;;;13.02;11.90;;;;;;;26.61;45.95;99980.97;4924346;28;97147;-87
2022/06/07 08:08:40;;;;;;;12.85;11.75;;;;;;;26.67;45.88;100014.47;4949731;28;101128;-87
2022/06/07 08:11:09;;;;;;;12.80;11.80;;;;;;;26.34;46.20;100017.00;4924014;28;98875;-82
2022/06/07 08:13:34;;;;;;;13.55;12.48;;;;;;;26.44;45.87;100009.63;4933672;28;97499;-83
2022/06/07 08:16:00;;;;;;;14.30;13.32;;;;;;;26.79;45.37;100007.75;4920088;28;97667;-84
2022/06/07 08:18:26;;;;;;;13.52;12.52;;;;;;;26.54;44.89;100017.63;4960848;28;98039;-86
2022/06/07 08:20:57;;;;;;;15.10;14.02;;;;;;;26.56;44.84;100005.69;4941366;28;98000;-84
2022/06/07 08:23:23;;;;;;;13.45;12.45;;;;;;;26.66;44.62;100002.88;4936731;28;96882;-83
2022/06/07 08:25:48;;;;;;;13.32;12.43;;;;;;;26.33;44.15;100007.25;4971662;28;97382;-85
2022/06/07 08:28:14;;;;;;;13.15;12.25;;;;;;;26.53;43.44;99997.97;4931431;28;97420;-82
2022/06/07 08:30:44;;;;;;;13.57;12.63;;;;;;;26.89;42.70;100008.47;4919540;28;101706;-86
2022/06/07 08:38:38;;;;;;;13.27;12.18;;;;;;;27.06;41.18;99985.94;4952723;28;98039;-82
2022/06/07 08:41:05;;;;;;;13.18;12.30;;;;;;;27.50;40.52;99995.59;4918461;28;100972;-82
2022/06/07 08:43:30;;;;;;;13.18;12.05;;;;;;;27.07;41.08;99962.53;4939514;28;98121;-82
2022/06/07 08:45:57;;;;;;;14.10;12.80;;;;;;;27.13;41.45;99985.28;4936070;28;97650;-82
2022/06/07 08:48:26;;;;;;;12.82;11.90;;;;;;;27.30;40.79;99989.69;4962371;28;98106;-83
2022/06/07 08:51:06;;;;;;;13.63;12.37;;;;;;;27.33;40.38;99948.09;4931378;28;101561;-82
2022/06/07 08:53:36;;;;;;;13.73;12.60;;;;;;;27.53;40.11;99985.31;4962458;28;97096;-81
2022/06/07 08:56:13;;;;;;;12.73;11.68;;;;;;;27.01;40.08;99980.22;4933298;28;97392;-81
2022/06/07 08:58:42;;;;;;;13.38;12.27;;;;;;;27.29;39.82;99971.84;4915781;28;99957;-80
2022/06/07 09:01:33;;;;;;;12.80;12.00;;;;;;;27.91;38.87;99961.31;4946477;28;101499;-82
2022/06/07 09:04:11;;;;;;;12.70;11.77;;;;;;;28.54;37.91;99974.94;4957079;28;97434;-84
2022/06/07 09:06:40;;;;;;;12.25;11.43;;;;;;;28.52;37.87;99966.19;4941281;28;97285;-83
2022/06/07 09:09:07;;;;;;;12.80;11.57;;;;;;;28.41;37.99;99954.75;4939744;28;101731;-83
2022/06/07 09:14:31;;;;;;;12.65;11.80;;;;;;;28.57;38.78;99975.44;4940428;28;97250;-84
2022/06/07 09:16:58;;;;;;;12.18;11.07;;;;;;;28.23;40.03;99956.00;4958681;28;96945;-84
2022/06/07 09:19:26;;;;;;;12.35;10.95;;;;;;;28.25;39.93;99951.28;4929556;28;101514;-84
2022/06/07 09:21:55;;;;;;;12.35;11.25;;;;;;;28.52;39.98;99960.78;4909543;28;100914;-83
2022/06/07 09:24:29;;;;;;;12.43;11.45;;;;;;;28.25;40.42;99967.47;4936189;28;96775;-83
2022/06/07 09:27:16;;;;;;;12.95;11.85;;;;;;;28.35;39.77;99960.81;4945446;28;97130;-83
2022/06/07 09:29:42;;;;;;;11.75;10.88;;;;;;;28.60;39.55;99953.47;4929290;28;101611;-82
2022/06/07 09:32:10;;;;;;;12.23;11.20;;;;;;;28.80;38.95;99955.72;4932960;28;98325;-82
2022/06/07 09:34:37;;;;;;;12.75;11.57;;;;;;;29.13;38.55;99942.00;4929704;28;97357;-84
2022/06/07 09:37:10;;;;;;;12.32;11.15;;;;;;;29.74;37.24;99950.91;4920986;28;97321;-83
2022/06/07 09:39:40;;;;;;;11.70;10.75;;;;;;;29.55;37.62;99939.59;4934812;28;101329;-84
2022/06/07 09:42:17;;;;;;;;;;;;;;;29.14;38.62;99947.19;4940472;28;101535;-83
2022/06/07 09:44:59;;;;;;;12.00;11.10;;;;;;;28.86;38.91;99944.19;4930187;28;96797;-83
2022/06/07 09:47:26;;;;;;;13.15;11.77;;;;;;;28.65;40.22;99944.81;4923376;28;97226;-84
2022/06/07 09:49:58;;;;;;;13.07;11.98;;;;;;;28.33;40.53;99919.69;4955979;28;98521;-84
2022/06/07 09:52:41;;;;;;;11.65;10.85;;;;;;;28.37;40.39;99929.09;4919244;28;100749;-85
2022/06/07 09:55:18;;;;;;;13.00;11.50;;;;;;;28.24;40.42;99928.81;4919108;28;97253;-85
2022/06/07 09:58:15;;;;;;;12.30;11.50;;;;;;;28.49;40.09;99926.03;4954983;28;97264;-85
2022/06/07 10:00:53;;;;;;;12.23;11.43;;;;;;;28.42;39.86;99928.59;4934882;28;97877;-85
2022/06/07 10:03:27;;;;;;;13.00;11.90;;;;;;;28.19;39.96;99898.84;4940885;28;100590;-85
2022/06/07 10:06:17;;;;;;;12.68;11.88;;;;;;;28.30;39.81;99911.09;4934209;28;96789;-86
2022/06/07 10:08:42;;;;;;;;;;;;;;;27.96;40.35;99912.28;4946799;28;97944;-85
2022/06/07 10:11:32;;;;;;;19.85;13.50;;;;;;;27.95;41.02;99914.09;4953719;28;101341;-85
2022/06/07 10:14:20;;;;;;;15.87;14.07;;;;;;;27.63;40.70;99914.19;4949261;28;101013;-85
2022/06/07 10:16:52;;;;;;;16.13;13.90;;;;;;;27.87;40.26;99910.63;4940277;28;98013;-84
2022/06/07 10:19:21;;;;;;;14.68;13.20;;;;;;;27.98;40.46;99910.22;4951966;28;97526;-84
2022/06/07 10:22:41;;;;;;;14.93;13.43;;;;;;;28.21;40.41;99894.09;4933521;28;102022;-85
2022/06/07 10:25:14;;;;;;;16.20;14.63;;;;;;;28.29;41.13;99915.66;4857261;28;102006;-85
2022/06/07 10:27:56;;;;;;;15.18;13.45;;;;;;;28.35;40.30;99901.44;4928429;28;97213;-85
2022/06/07 10:30:27;;;;;;;16.40;14.73;;;;;;;28.59;40.33;99916.69;4919144;28;98130;-85
2022/06/07 10:33:12;;;;;;;13.90;12.70;;;;;;;28.45;40.47;99920.16;4913439;28;101017;-85
2022/06/07 10:35:41;;;;;;;13.40;12.38;;;;;;;28.40;39.94;99914.41;4930705;28;101332;-84
2022/06/07 10:38:33;;;;;;;13.13;12.02;;;;;;;28.31;39.38;99913.63;4951641;28;97296;-84
2022/06/07 10:41:11;;;;;;;12.90;11.82;;;;;;;28.08;39.52;99926.22;4964964;28;98009;-86
2022/06/07 10:43:50;;;;;;;12.23;11.30;;;;;;;28.08;38.66;99913.56;4942030;28;101427;-82
2022/06/07 10:46:17;;;;;;;12.38;11.48;;;;;;;27.57;39.19;99883.38;4920321;28;100767;-84
2022/06/07 10:48:50;;;;;;;12.68;11.80;;;;;;;27.61;38.82;99910.84;4950103;28;98064;-86
2022/06/07 10:54:14;;;;;;;21.05;11.75;;;;;;;27.28;38.43;99894.72;4940143;28;99506;-84
2022/06/07 10:56:49;;;;;;;18.15;12.35;;;;;;;27.31;38.29;99891.69;4949902;28;101139;-85
2022/06/07 10:59:20;;;;;;;12.05;10.95;;;;;;;27.31;38.36;99886.28;4945247;28;98000;-88
2022/06/07 11:01:52;;;;;;;15.43;12.20;;;;;;;27.31;38.85;99881.75;4926556;28;97049;-83
2022/06/07 11:10:06;;;;;;;12.02;11.13;;;;;;;26.88;38.37;99882.94;4955236;28;98013;-86
2022/06/07 11:13:07;;;;;;;12.60;11.50;;;;;;;27.01;38.56;99877.03;4937855;28;98156;-84
2022/06/07 11:15:54;;;;;;;11.80;10.82;;;;;;;27.18;38.02;99894.91;4937719;28;101488;-86
2022/06/07 11:18:24;;;;;;;11.98;11.30;;;;;;;27.24;37.78;99871.81;4960109;28;97827;-84
2022/06/07 11:21:02;;;;;;;11.73;10.93;;;;;;;27.35;37.68;99893.03;4957050;28;96994;-87
2022/06/07 11:23:45;;;;;;;11.52;10.70;;;;;;;27.44;37.61;99892.00;4949673;28;97998;-86
2022/06/07 11:26:16;;;;;;;11.68;10.73;;;;;;;27.45;37.89;99877.50;4924194;28;101737;-84
2022/06/07 11:28:41;;;;;;;14.00;12.73;;;;;;;27.64;37.97;99888.94;4960319;28;100879;-85
2022/06/07 11:31:28;;;;;;;14.57;13.50;;;;;;;27.73;37.38;99883.31;4957984;28;97232;-85
2022/06/07 11:33:53;;;;;;;12.00;10.88;;;;;;;27.82;37.33;99873.38;4936987;28;96831;-84
2022/06/07 11:36:27;;;;;;;11.07;10.07;;;;;;;27.90;36.63;99884.16;4941514;28;100995;-84
2022/06/07 11:41:40;;;;;;;11.43;10.52;;;;;;;27.88;36.85;99885.34;4957734;28;96880;-86
2022/06/07 11:44:11;;;;;;;12.25;10.90;;;;;;;27.79;37.71;99887.22;4945996;28;96784;-88
2022/06/07 11:46:57;;;;;;;11.43;10.50;;;;;;;27.84;37.88;99881.28;4942140;28;101597;-87
2022/06/07 11:49:27;;;;;;;11.70;10.70;;;;;;;27.94;37.88;99874.69;4942217;28;101444;-86
2022/06/07 11:52:11;;;;;;;13.50;12.60;;;;;;;27.89;37.89;99879.75;4940484;28;96731;-86
2022/06/07 11:54:46;;;;;;;10.82;10.02;;;;;;;28.04;37.80;99903.28;4961913;28;96916;-82
2022/06/07 11:57:33;;;;;;;11.68;10.93;;;;;;;28.03;37.54;99893.53;4944677;28;101958;-81